sensor_id;sensor_type;location;lat;lon;timestamp;P1;durP1;ratioP1;P2;durP2;ratioP2
81807;SDS011;71241;13.676;100.700;2024-02-16T00:01:52;30.08;;;20.88;;
81807;SDS011;71241;13.676;100.700;2024-02-16T00:04:22;32.22;;;23.55;;
81807;SDS011;71241;13.676;100.700;2024-02-16T00:06:53;30.95;;;25.38;;
81807;SDS011;71241;13.676;100.700;2024-02-16T00:09:23;26.70;;;21.30;;
81807;SDS011;71241;13.676;100.700;2024-02-16T00:11:54;26.45;;;18.50;;
81807;SDS011;71241;13.676;100.700;2024-02-16T00:14:27;23.67;;;18.63;;
81807;SDS011;71241;13.676;100.700;2024-02-16T00:17:01;28.83;;;20.17;;
81807;SDS011;71241;13.676;100.700;2024-02-16T00:19:32;28.80;;;19.55;;
81807;SDS011;71241;13.676;100.700;2024-02-16T00:22:02;26.98;;;19.15;;
81807;SDS011;71241;13.676;100.700;2024-02-16T00:24:33;20.42;;;16.63;;
81807;SDS011;71241;13.676;100.700;2024-02-16T00:27:05;27.65;;;21.90;;
81807;SDS011;71241;13.676;100.700;2024-02-16T00:29:35;28.88;;;21.30;;
81807;SDS011;71241;13.676;100.700;2024-02-16T00:32:08;31.13;;;20.83;;
81807;SDS011;71241;13.676;100.700;2024-02-16T00:34:39;26.80;;;18.98;;
81807;SDS011;71241;13.676;100.700;2024-02-16T00:37:10;26.00;;;18.92;;
81807;SDS011;71241;13.676;100.700;2024-02-16T00:39:43;23.98;;;18.83;;
81807;SDS011;71241;13.676;100.700;2024-02-16T00:42:14;26.23;;;21.90;;
81807;SDS011;71241;13.676;100.700;2024-02-16T00:44:46;27.65;;;18.92;;
81807;SDS011;71241;13.676;100.700;2024-02-16T00:47:18;24.40;;;20.77;;
81807;SDS011;71241;13.676;100.700;2024-02-16T00:49:48;24.95;;;19.90;;
81807;SDS011;71241;13.676;100.700;2024-02-16T00:52:18;25.15;;;19.67;;
81807;SDS011;71241;13.676;100.700;2024-02-16T00:54:49;26.55;;;18.83;;
81807;SDS011;71241;13.676;100.700;2024-02-16T00:57:19;25.83;;;18.27;;
81807;SDS011;71241;13.676;100.700;2024-02-16T00:59:51;24.90;;;17.98;;
81807;SDS011;71241;13.676;100.700;2024-02-16T01:02:23;24.30;;;18.35;;
81807;SDS011;71241;13.676;100.700;2024-02-16T01:04:56;29.17;;;19.20;;
81807;SDS011;71241;13.676;100.700;2024-02-16T01:07:31;24.15;;;19.13;;
81807;SDS011;71241;13.676;100.700;2024-02-16T01:10:01;23.70;;;18.67;;
81807;SDS011;71241;13.676;100.700;2024-02-16T01:12:35;26.10;;;18.73;;
81807;SDS011;71241;13.676;100.700;2024-02-16T01:15:06;25.95;;;18.45;;
81807;SDS011;71241;13.676;100.700;2024-02-16T01:17:38;22.85;;;16.98;;
81807;SDS011;71241;13.676;100.700;2024-02-16T01:20:09;21.48;;;16.67;;
81807;SDS011;71241;13.676;100.700;2024-02-16T01:22:41;26.40;;;19.13;;
81807;SDS011;71241;13.676;100.700;2024-02-16T01:25:11;24.58;;;22.00;;
81807;SDS011;71241;13.676;100.700;2024-02-16T01:27:42;25.33;;;22.90;;
81807;SDS011;71241;13.676;100.700;2024-02-16T01:30:12;24.17;;;21.63;;
81807;SDS011;71241;13.676;100.700;2024-02-16T01:32:46;23.38;;;17.80;;
81807;SDS011;71241;13.676;100.700;2024-02-16T01:35:16;26.80;;;18.77;;
81807;SDS011;71241;13.676;100.700;2024-02-16T01:37:47;24.15;;;16.95;;
81807;SDS011;71241;13.676;100.700;2024-02-16T01:40:18;22.13;;;15.40;;
81807;SDS011;71241;13.676;100.700;2024-02-16T01:42:49;27.88;;;25.38;;
81807;SDS011;71241;13.676;100.700;2024-02-16T01:45:19;20.45;;;16.70;;
81807;SDS011;71241;13.676;100.700;2024-02-16T01:47:52;22.92;;;18.92;;
81807;SDS011;71241;13.676;100.700;2024-02-16T01:50:24;24.85;;;17.15;;
81807;SDS011;71241;13.676;100.700;2024-02-16T01:52:54;24.48;;;18.92;;
81807;SDS011;71241;13.676;100.700;2024-02-16T01:55:25;25.85;;;18.95;;
81807;SDS011;71241;13.676;100.700;2024-02-16T01:57:55;28.13;;;19.17;;
81807;SDS011;71241;13.676;100.700;2024-02-16T02:00:28;28.90;;;21.17;;
81807;SDS011;71241;13.676;100.700;2024-02-16T02:03:02;26.90;;;20.40;;
81807;SDS011;71241;13.676;100.700;2024-02-16T02:05:33;22.33;;;18.80;;
81807;SDS011;71241;13.676;100.700;2024-02-16T02:08:09;28.45;;;20.83;;
81807;SDS011;71241;13.676;100.700;2024-02-16T02:10:39;24.63;;;18.63;;
81807;SDS011;71241;13.676;100.700;2024-02-16T02:13:10;27.27;;;20.13;;
81807;SDS011;71241;13.676;100.700;2024-02-16T02:15:40;28.00;;;20.98;;
81807;SDS011;71241;13.676;100.700;2024-02-16T02:18:12;24.35;;;19.40;;
81807;SDS011;71241;13.676;100.700;2024-02-16T02:20:43;23.63;;;19.33;;
81807;SDS011;71241;13.676;100.700;2024-02-16T02:23:15;24.50;;;19.70;;
81807;SDS011;71241;13.676;100.700;2024-02-16T02:25:45;24.95;;;19.13;;
81807;SDS011;71241;13.676;100.700;2024-02-16T02:28:18;28.55;;;20.48;;
81807;SDS011;71241;13.676;100.700;2024-02-16T02:30:48;27.70;;;20.83;;
81807;SDS011;71241;13.676;100.700;2024-02-16T02:33:18;25.55;;;21.23;;
81807;SDS011;71241;13.676;100.700;2024-02-16T02:35:49;23.98;;;20.30;;
81807;SDS011;71241;13.676;100.700;2024-02-16T02:38:21;24.30;;;19.95;;
81807;SDS011;71241;13.676;100.700;2024-02-16T02:40:52;25.63;;;20.38;;
81807;SDS011;71241;13.676;100.700;2024-02-16T02:43:22;31.10;;;26.38;;
81807;SDS011;71241;13.676;100.700;2024-02-16T02:45:52;32.97;;;29.75;;
81807;SDS011;71241;13.676;100.700;2024-02-16T02:48:23;30.42;;;27.33;;
81807;SDS011;71241;13.676;100.700;2024-02-16T02:50:53;32.50;;;26.05;;
81807;SDS011;71241;13.676;100.700;2024-02-16T02:53:26;33.20;;;27.45;;
81807;SDS011;71241;13.676;100.700;2024-02-16T02:55:57;28.08;;;24.10;;
81807;SDS011;71241;13.676;100.700;2024-02-16T02:58:27;32.70;;;27.00;;
81807;SDS011;71241;13.676;100.700;2024-02-16T03:00:59;36.47;;;27.33;;
81807;SDS011;71241;13.676;100.700;2024-02-16T03:03:30;27.73;;;24.27;;
81807;SDS011;71241;13.676;100.700;2024-02-16T03:06:01;27.77;;;23.13;;
81807;SDS011;71241;13.676;100.700;2024-02-16T03:08:34;28.83;;;23.08;;
81807;SDS011;71241;13.676;100.700;2024-02-16T03:11:04;29.15;;;25.10;;
81807;SDS011;71241;13.676;100.700;2024-02-16T03:13:35;32.55;;;24.45;;
81807;SDS011;71241;13.676;100.700;2024-02-16T03:16:06;32.10;;;25.02;;
81807;SDS011;71241;13.676;100.700;2024-02-16T03:18:37;34.03;;;25.98;;
81807;SDS011;71241;13.676;100.700;2024-02-16T03:21:08;29.90;;;26.02;;
81807;SDS011;71241;13.676;100.700;2024-02-16T03:23:43;33.40;;;27.70;;
81807;SDS011;71241;13.676;100.700;2024-02-16T03:26:14;34.20;;;27.73;;
81807;SDS011;71241;13.676;100.700;2024-02-16T03:28:45;42.55;;;31.65;;
81807;SDS011;71241;13.676;100.700;2024-02-16T03:31:18;35.35;;;28.08;;
81807;SDS011;71241;13.676;100.700;2024-02-16T03:33:49;38.67;;;30.42;;
81807;SDS011;71241;13.676;100.700;2024-02-16T03:36:23;35.83;;;30.15;;
81807;SDS011;71241;13.676;100.700;2024-02-16T03:38:56;34.75;;;29.50;;
81807;SDS011;71241;13.676;100.700;2024-02-16T03:41:26;36.42;;;28.02;;
81807;SDS011;71241;13.676;100.700;2024-02-16T03:43:57;35.35;;;28.08;;
81807;SDS011;71241;13.676;100.700;2024-02-16T03:46:27;47.17;;;42.30;;
81807;SDS011;71241;13.676;100.700;2024-02-16T03:48:58;44.05;;;39.58;;
81807;SDS011;71241;13.676;100.700;2024-02-16T03:51:29;44.95;;;39.30;;
81807;SDS011;71241;13.676;100.700;2024-02-16T03:54:01;32.42;;;28.05;;
81807;SDS011;71241;13.676;100.700;2024-02-16T03:56:33;39.30;;;30.58;;
81807;SDS011;71241;13.676;100.700;2024-02-16T03:59:03;39.00;;;30.95;;
81807;SDS011;71241;13.676;100.700;2024-02-16T04:01:40;49.40;;;38.28;;
81807;SDS011;71241;13.676;100.700;2024-02-16T04:04:11;42.03;;;34.75;;
81807;SDS011;71241;13.676;100.700;2024-02-16T04:06:42;48.22;;;38.38;;
81807;SDS011;71241;13.676;100.700;2024-02-16T04:09:14;45.95;;;36.35;;
81807;SDS011;71241;13.676;100.700;2024-02-16T04:11:45;36.63;;;32.03;;
81807;SDS011;71241;13.676;100.700;2024-02-16T04:14:16;49.17;;;37.05;;
81807;SDS011;71241;13.676;100.700;2024-02-16T04:16:46;43.63;;;33.92;;
81807;SDS011;71241;13.676;100.700;2024-02-16T04:19:16;34.42;;;30.83;;
81807;SDS011;71241;13.676;100.700;2024-02-16T04:21:47;40.80;;;35.40;;
81807;SDS011;71241;13.676;100.700;2024-02-16T04:24:19;35.88;;;32.05;;
81807;SDS011;71241;13.676;100.700;2024-02-16T04:26:49;42.15;;;35.90;;
81807;SDS011;71241;13.676;100.700;2024-02-16T04:29:20;43.78;;;39.03;;
81807;SDS011;71241;13.676;100.700;2024-02-16T04:31:50;45.45;;;34.85;;
81807;SDS011;71241;13.676;100.700;2024-02-16T04:34:21;40.88;;;36.50;;
81807;SDS011;71241;13.676;100.700;2024-02-16T04:36:51;45.08;;;38.35;;
81807;SDS011;71241;13.676;100.700;2024-02-16T04:39:23;41.35;;;34.47;;
81807;SDS011;71241;13.676;100.700;2024-02-16T04:41:54;39.25;;;35.08;;
81807;SDS011;71241;13.676;100.700;2024-02-16T04:44:24;43.38;;;37.75;;
81807;SDS011;71241;13.676;100.700;2024-02-16T04:46:58;43.28;;;38.10;;
81807;SDS011;71241;13.676;100.700;2024-02-16T04:49:28;50.55;;;41.35;;
81807;SDS011;71241;13.676;100.700;2024-02-16T04:51:58;40.70;;;34.22;;
81807;SDS011;71241;13.676;100.700;2024-02-16T04:54:30;35.30;;;31.58;;
81807;SDS011;71241;13.676;100.700;2024-02-16T04:57:01;56.20;;;40.20;;
81807;SDS011;71241;13.676;100.700;2024-02-16T04:59:32;36.25;;;32.50;;
81807;SDS011;71241;13.676;100.700;2024-02-16T05:02:04;38.10;;;33.75;;
81807;SDS011;71241;13.676;100.700;2024-02-16T05:04:36;36.58;;;32.80;;
81807;SDS011;71241;13.676;100.700;2024-02-16T05:07:06;45.13;;;40.20;;
81807;SDS011;71241;13.676;100.700;2024-02-16T05:09:38;36.83;;;28.67;;
81807;SDS011;71241;13.676;100.700;2024-02-16T05:12:09;37.70;;;29.50;;
81807;SDS011;71241;13.676;100.700;2024-02-16T05:14:39;37.40;;;30.25;;
81807;SDS011;71241;13.676;100.700;2024-02-16T05:17:09;23.00;;;18.92;;
81807;SDS011;71241;13.676;100.700;2024-02-16T05:19:41;22.00;;;16.35;;
81807;SDS011;71241;13.676;100.700;2024-02-16T05:22:11;19.13;;;15.52;;
81807;SDS011;71241;13.676;100.700;2024-02-16T05:24:44;21.00;;;16.00;;
81807;SDS011;71241;13.676;100.700;2024-02-16T05:27:15;17.38;;;15.50;;
81807;SDS011;71241;13.676;100.700;2024-02-16T05:29:46;20.30;;;14.68;;
81807;SDS011;71241;13.676;100.700;2024-02-16T05:32:17;14.48;;;11.98;;
81807;SDS011;71241;13.676;100.700;2024-02-16T05:34:47;18.02;;;12.48;;
81807;SDS011;71241;13.676;100.700;2024-02-16T05:37:17;16.05;;;12.40;;
81807;SDS011;71241;13.676;100.700;2024-02-16T05:39:51;14.13;;;10.38;;
81807;SDS011;71241;13.676;100.700;2024-02-16T05:42:37;14.20;;;12.38;;
81807;SDS011;71241;13.676;100.700;2024-02-16T05:45:09;16.63;;;13.15;;
81807;SDS011;71241;13.676;100.700;2024-02-16T05:47:40;14.43;;;12.93;;
81807;SDS011;71241;13.676;100.700;2024-02-16T05:50:11;22.02;;;15.88;;
81807;SDS011;71241;13.676;100.700;2024-02-16T05:52:42;24.23;;;19.38;;
81807;SDS011;71241;13.676;100.700;2024-02-16T05:55:14;23.67;;;20.40;;
81807;SDS011;71241;13.676;100.700;2024-02-16T05:57:47;19.13;;;14.23;;
81807;SDS011;71241;13.676;100.700;2024-02-16T06:00:18;16.92;;;14.15;;
81807;SDS011;71241;13.676;100.700;2024-02-16T06:02:51;19.27;;;17.15;;
81807;SDS011;71241;13.676;100.700;2024-02-16T06:05:21;21.88;;;16.77;;
81807;SDS011;71241;13.676;100.700;2024-02-16T06:07:52;22.40;;;18.60;;
81807;SDS011;71241;13.676;100.700;2024-02-16T06:10:24;22.88;;;19.13;;
81807;SDS011;71241;13.676;100.700;2024-02-16T06:12:54;24.58;;;20.30;;
81807;SDS011;71241;13.676;100.700;2024-02-16T06:15:25;22.42;;;19.95;;
81807;SDS011;71241;13.676;100.700;2024-02-16T06:17:55;23.42;;;20.98;;
81807;SDS011;71241;13.676;100.700;2024-02-16T06:20:26;22.63;;;18.77;;
81807;SDS011;71241;13.676;100.700;2024-02-16T06:22:56;26.10;;;19.05;;
81807;SDS011;71241;13.676;100.700;2024-02-16T06:25:29;23.10;;;18.45;;
81807;SDS011;71241;13.676;100.700;2024-02-16T06:27:59;22.70;;;19.85;;
81807;SDS011;71241;13.676;100.700;2024-02-16T06:30:29;24.52;;;21.63;;
81807;SDS011;71241;13.676;100.700;2024-02-16T06:33:00;26.35;;;22.88;;
81807;SDS011;71241;13.676;100.700;2024-02-16T06:35:31;25.70;;;22.33;;
81807;SDS011;71241;13.676;100.700;2024-02-16T06:38:01;27.60;;;22.50;;
81807;SDS011;71241;13.676;100.700;2024-02-16T06:40:33;24.42;;;21.80;;
81807;SDS011;71241;13.676;100.700;2024-02-16T06:43:04;25.25;;;22.50;;
81807;SDS011;71241;13.676;100.700;2024-02-16T06:45:37;24.90;;;20.85;;
81807;SDS011;71241;13.676;100.700;2024-02-16T06:48:07;25.27;;;22.52;;
81807;SDS011;71241;13.676;100.700;2024-02-16T06:50:38;33.20;;;23.00;;
81807;SDS011;71241;13.676;100.700;2024-02-16T06:53:08;25.98;;;23.25;;
81807;SDS011;71241;13.676;100.700;2024-02-16T06:55:40;30.40;;;24.48;;
81807;SDS011;71241;13.676;100.700;2024-02-16T06:58:10;25.50;;;22.65;;
81807;SDS011;71241;13.676;100.700;2024-02-16T07:00:41;29.23;;;23.80;;
81807;SDS011;71241;13.676;100.700;2024-02-16T07:03:12;23.77;;;20.30;;
81807;SDS011;71241;13.676;100.700;2024-02-16T07:05:43;21.65;;;19.35;;
81807;SDS011;71241;13.676;100.700;2024-02-16T07:08:14;20.08;;;16.30;;
81807;SDS011;71241;13.676;100.700;2024-02-16T07:10:46;22.40;;;19.90;;
81807;SDS011;71241;13.676;100.700;2024-02-16T07:13:17;23.60;;;18.42;;
81807;SDS011;71241;13.676;100.700;2024-02-16T07:15:48;23.92;;;20.83;;
81807;SDS011;71241;13.676;100.700;2024-02-16T07:18:19;22.35;;;19.20;;
81807;SDS011;71241;13.676;100.700;2024-02-16T07:20:50;114.47;;;30.85;;
81807;SDS011;71241;13.676;100.700;2024-02-16T07:23:21;66.95;;;24.67;;
81807;SDS011;71241;13.676;100.700;2024-02-16T07:25:53;33.63;;;22.90;;
81807;SDS011;71241;13.676;100.700;2024-02-16T07:28:25;33.92;;;19.80;;
81807;SDS011;71241;13.676;100.700;2024-02-16T07:30:56;23.77;;;18.77;;
81807;SDS011;71241;13.676;100.700;2024-02-16T07:33:26;21.85;;;19.55;;
81807;SDS011;71241;13.676;100.700;2024-02-16T07:35:57;21.05;;;18.90;;
81807;SDS011;71241;13.676;100.700;2024-02-16T07:38:28;26.92;;;21.63;;
81807;SDS011;71241;13.676;100.700;2024-02-16T07:41:00;27.55;;;20.23;;
81807;SDS011;71241;13.676;100.700;2024-02-16T07:43:34;23.88;;;18.25;;
81807;SDS011;71241;13.676;100.700;2024-02-16T07:46:05;22.13;;;19.75;;
81807;SDS011;71241;13.676;100.700;2024-02-16T07:48:40;22.65;;;20.33;;
81807;SDS011;71241;13.676;100.700;2024-02-16T07:51:11;24.58;;;20.73;;
81807;SDS011;71241;13.676;100.700;2024-02-16T07:53:41;24.27;;;20.23;;
81807;SDS011;71241;13.676;100.700;2024-02-16T07:58:45;22.00;;;18.77;;
81807;SDS011;71241;13.676;100.700;2024-02-16T08:01:15;23.02;;;18.77;;
81807;SDS011;71241;13.676;100.700;2024-02-16T08:03:47;23.60;;;21.15;;
81807;SDS011;71241;13.676;100.700;2024-02-16T08:06:18;22.50;;;18.70;;
81807;SDS011;71241;13.676;100.700;2024-02-16T08:08:50;22.98;;;19.52;;
81807;SDS011;71241;13.676;100.700;2024-02-16T08:11:22;22.05;;;17.33;;
81807;SDS011;71241;13.676;100.700;2024-02-16T08:13:52;24.77;;;22.38;;
81807;SDS011;71241;13.676;100.700;2024-02-16T08:16:24;22.35;;;18.98;;
81807;SDS011;71241;13.676;100.700;2024-02-16T08:18:55;25.02;;;18.08;;
81807;SDS011;71241;13.676;100.700;2024-02-16T08:21:25;22.20;;;19.55;;
81807;SDS011;71241;13.676;100.700;2024-02-16T08:23:59;20.63;;;18.40;;
81807;SDS011;71241;13.676;100.700;2024-02-16T08:26:31;23.90;;;19.23;;
81807;SDS011;71241;13.676;100.700;2024-02-16T08:29:01;20.65;;;18.63;;
81807;SDS011;71241;13.676;100.700;2024-02-16T08:31:31;22.95;;;20.25;;
81807;SDS011;71241;13.676;100.700;2024-02-16T08:34:02;23.48;;;21.10;;
81807;SDS011;71241;13.676;100.700;2024-02-16T08:36:36;23.85;;;21.42;;
81807;SDS011;71241;13.676;100.700;2024-02-16T08:39:09;31.70;;;24.98;;
81807;SDS011;71241;13.676;100.700;2024-02-16T08:41:42;25.85;;;22.15;;
81807;SDS011;71241;13.676;100.700;2024-02-16T08:44:13;27.23;;;22.88;;
81807;SDS011;71241;13.676;100.700;2024-02-16T08:46:43;26.05;;;23.35;;
81807;SDS011;71241;13.676;100.700;2024-02-16T08:49:15;27.60;;;23.95;;
81807;SDS011;71241;13.676;100.700;2024-02-16T08:51:45;25.98;;;20.73;;
81807;SDS011;71241;13.676;100.700;2024-02-16T08:54:16;23.95;;;18.40;;
81807;SDS011;71241;13.676;100.700;2024-02-16T08:56:49;24.75;;;20.90;;
81807;SDS011;71241;13.676;100.700;2024-02-16T08:59:19;22.92;;;17.85;;
81807;SDS011;71241;13.676;100.700;2024-02-16T09:01:51;24.08;;;19.15;;
81807;SDS011;71241;13.676;100.700;2024-02-16T09:04:21;29.33;;;20.90;;
81807;SDS011;71241;13.676;100.700;2024-02-16T09:06:53;21.55;;;19.50;;
81807;SDS011;71241;13.676;100.700;2024-02-16T09:09:23;25.75;;;19.83;;
81807;SDS011;71241;13.676;100.700;2024-02-16T09:11:56;23.35;;;19.77;;
81807;SDS011;71241;13.676;100.700;2024-02-16T09:14:26;23.20;;;19.05;;
81807;SDS011;71241;13.676;100.700;2024-02-16T09:16:57;23.65;;;18.92;;
81807;SDS011;71241;13.676;100.700;2024-02-16T09:19:27;21.95;;;17.83;;
81807;SDS011;71241;13.676;100.700;2024-02-16T09:21:58;22.75;;;20.00;;
81807;SDS011;71241;13.676;100.700;2024-02-16T09:24:30;21.42;;;18.00;;
81807;SDS011;71241;13.676;100.700;2024-02-16T09:27:03;19.27;;;16.80;;
81807;SDS011;71241;13.676;100.700;2024-02-16T09:29:33;29.85;;;19.00;;
81807;SDS011;71241;13.676;100.700;2024-02-16T09:32:04;26.65;;;18.05;;
81807;SDS011;71241;13.676;100.700;2024-02-16T09:34:35;25.30;;;17.52;;
81807;SDS011;71241;13.676;100.700;2024-02-16T09:37:09;22.92;;;18.10;;
81807;SDS011;71241;13.676;100.700;2024-02-16T09:39:41;21.85;;;18.20;;
81807;SDS011;71241;13.676;100.700;2024-02-16T09:42:13;23.73;;;16.33;;
81807;SDS011;71241;13.676;100.700;2024-02-16T09:44:45;19.98;;;16.65;;
81807;SDS011;71241;13.676;100.700;2024-02-16T09:47:15;20.17;;;17.67;;
81807;SDS011;71241;13.676;100.700;2024-02-16T09:49:48;21.40;;;18.63;;
81807;SDS011;71241;13.676;100.700;2024-02-16T09:52:19;20.05;;;17.92;;
81807;SDS011;71241;13.676;100.700;2024-02-16T09:54:49;22.42;;;18.20;;
81807;SDS011;71241;13.676;100.700;2024-02-16T09:57:21;21.70;;;17.75;;
81807;SDS011;71241;13.676;100.700;2024-02-16T09:59:52;20.10;;;17.08;;
81807;SDS011;71241;13.676;100.700;2024-02-16T10:02:24;20.55;;;18.23;;
81807;SDS011;71241;13.676;100.700;2024-02-16T10:04:55;19.75;;;17.65;;
81807;SDS011;71241;13.676;100.700;2024-02-16T10:07:30;24.80;;;18.67;;
81807;SDS011;71241;13.676;100.700;2024-02-16T10:10:02;19.27;;;17.05;;
81807;SDS011;71241;13.676;100.700;2024-02-16T10:12:34;20.65;;;16.92;;
81807;SDS011;71241;13.676;100.700;2024-02-16T10:15:05;19.30;;;16.60;;
81807;SDS011;71241;13.676;100.700;2024-02-16T10:17:36;21.17;;;16.88;;
81807;SDS011;71241;13.676;100.700;2024-02-16T10:20:08;22.67;;;17.25;;
81807;SDS011;71241;13.676;100.700;2024-02-16T10:22:40;18.70;;;16.70;;
81807;SDS011;71241;13.676;100.700;2024-02-16T10:25:13;19.33;;;17.38;;
81807;SDS011;71241;13.676;100.700;2024-02-16T10:27:47;21.58;;;17.20;;
81807;SDS011;71241;13.676;100.700;2024-02-16T10:30:19;21.73;;;16.65;;
81807;SDS011;71241;13.676;100.700;2024-02-16T10:32:51;21.30;;;17.95;;
81807;SDS011;71241;13.676;100.700;2024-02-16T10:35:21;21.95;;;17.30;;
81807;SDS011;71241;13.676;100.700;2024-02-16T10:37:53;18.13;;;16.27;;
81807;SDS011;71241;13.676;100.700;2024-02-16T10:40:24;18.27;;;15.50;;
81807;SDS011;71241;13.676;100.700;2024-02-16T10:42:58;17.10;;;14.70;;
81807;SDS011;71241;13.676;100.700;2024-02-16T10:45:33;16.80;;;14.82;;
81807;SDS011;71241;13.676;100.700;2024-02-16T10:48:05;19.92;;;15.32;;
81807;SDS011;71241;13.676;100.700;2024-02-16T10:50:37;20.13;;;15.68;;
81807;SDS011;71241;13.676;100.700;2024-02-16T10:53:09;21.58;;;16.23;;
81807;SDS011;71241;13.676;100.700;2024-02-16T10:55:43;20.55;;;16.85;;
81807;SDS011;71241;13.676;100.700;2024-02-16T10:58:16;17.95;;;16.05;;
81807;SDS011;71241;13.676;100.700;2024-02-16T11:00:50;23.48;;;16.50;;
81807;SDS011;71241;13.676;100.700;2024-02-16T11:03:23;17.05;;;15.35;;
81807;SDS011;71241;13.676;100.700;2024-02-16T11:05:54;22.13;;;18.23;;
81807;SDS011;71241;13.676;100.700;2024-02-16T11:08:28;25.48;;;23.08;;
81807;SDS011;71241;13.676;100.700;2024-02-16T11:10:59;25.30;;;22.98;;
81807;SDS011;71241;13.676;100.700;2024-02-16T11:13:34;23.98;;;21.58;;
81807;SDS011;71241;13.676;100.700;2024-02-16T11:16:06;24.17;;;21.98;;
81807;SDS011;71241;13.676;100.700;2024-02-16T11:18:37;24.75;;;22.25;;
81807;SDS011;71241;13.676;100.700;2024-02-16T11:21:11;26.85;;;23.85;;
81807;SDS011;71241;13.676;100.700;2024-02-16T11:23:42;25.40;;;22.95;;
81807;SDS011;71241;13.676;100.700;2024-02-16T11:26:13;23.40;;;21.23;;
81807;SDS011;71241;13.676;100.700;2024-02-16T11:28:46;19.60;;;17.10;;
81807;SDS011;71241;13.676;100.700;2024-02-16T11:31:16;26.38;;;17.80;;
81807;SDS011;71241;13.676;100.700;2024-02-16T11:33:47;18.52;;;16.70;;
81807;SDS011;71241;13.676;100.700;2024-02-16T11:36:18;19.65;;;17.70;;
81807;SDS011;71241;13.676;100.700;2024-02-16T11:38:48;20.20;;;16.00;;
81807;SDS011;71241;13.676;100.700;2024-02-16T11:41:19;20.30;;;16.58;;
81807;SDS011;71241;13.676;100.700;2024-02-16T11:43:58;21.92;;;19.60;;
81807;SDS011;71241;13.676;100.700;2024-02-16T11:46:29;21.08;;;17.67;;
81807;SDS011;71241;13.676;100.700;2024-02-16T11:49:04;21.02;;;16.50;;
81807;SDS011;71241;13.676;100.700;2024-02-16T11:51:35;21.40;;;18.05;;
81807;SDS011;71241;13.676;100.700;2024-02-16T11:54:09;20.73;;;17.23;;
81807;SDS011;71241;13.676;100.700;2024-02-16T11:56:41;20.83;;;18.58;;
81807;SDS011;71241;13.676;100.700;2024-02-16T11:59:15;20.33;;;18.08;;
81807;SDS011;71241;13.676;100.700;2024-02-16T12:01:50;21.40;;;13.82;;
81807;SDS011;71241;13.676;100.700;2024-02-16T12:04:23;20.35;;;15.88;;
81807;SDS011;71241;13.676;100.700;2024-02-16T12:06:55;17.40;;;15.07;;
81807;SDS011;71241;13.676;100.700;2024-02-16T12:09:31;21.90;;;14.98;;
81807;SDS011;71241;13.676;100.700;2024-02-16T12:12:04;20.58;;;15.45;;
81807;SDS011;71241;13.676;100.700;2024-02-16T12:14:37;18.45;;;16.48;;
81807;SDS011;71241;13.676;100.700;2024-02-16T12:17:07;17.70;;;15.35;;
81807;SDS011;71241;13.676;100.700;2024-02-16T12:19:37;15.32;;;13.75;;
81807;SDS011;71241;13.676;100.700;2024-02-16T12:22:16;18.45;;;11.77;;
81807;SDS011;71241;13.676;100.700;2024-02-16T12:24:48;19.73;;;13.27;;
81807;SDS011;71241;13.676;100.700;2024-02-16T12:27:22;15.40;;;12.23;;
81807;SDS011;71241;13.676;100.700;2024-02-16T12:29:54;17.85;;;14.80;;
81807;SDS011;71241;13.676;100.700;2024-02-16T12:32:24;14.60;;;12.98;;
81807;SDS011;71241;13.676;100.700;2024-02-16T12:34:55;20.75;;;14.40;;
81807;SDS011;71241;13.676;100.700;2024-02-16T12:37:26;16.13;;;13.48;;
81807;SDS011;71241;13.676;100.700;2024-02-16T12:39:57;16.20;;;14.07;;
81807;SDS011;71241;13.676;100.700;2024-02-16T12:42:27;21.20;;;13.75;;
81807;SDS011;71241;13.676;100.700;2024-02-16T12:45:02;17.58;;;15.25;;
81807;SDS011;71241;13.676;100.700;2024-02-16T12:47:33;17.25;;;13.52;;
81807;SDS011;71241;13.676;100.700;2024-02-16T12:50:04;19.52;;;16.70;;
81807;SDS011;71241;13.676;100.700;2024-02-16T12:52:35;18.25;;;13.85;;
81807;SDS011;71241;13.676;100.700;2024-02-16T12:55:20;19.20;;;14.30;;
81807;SDS011;71241;13.676;100.700;2024-02-16T12:57:51;20.15;;;14.07;;
81807;SDS011;71241;13.676;100.700;2024-02-16T13:00:23;18.75;;;13.23;;
81807;SDS011;71241;13.676;100.700;2024-02-16T13:02:54;18.98;;;15.73;;
81807;SDS011;71241;13.676;100.700;2024-02-16T13:05:25;17.05;;;13.88;;
81807;SDS011;71241;13.676;100.700;2024-02-16T13:07:56;17.98;;;14.13;;
81807;SDS011;71241;13.676;100.700;2024-02-16T13:10:27;21.73;;;16.02;;
81807;SDS011;71241;13.676;100.700;2024-02-16T13:12:59;20.52;;;14.30;;
81807;SDS011;71241;13.676;100.700;2024-02-16T13:15:31;20.02;;;15.18;;
81807;SDS011;71241;13.676;100.700;2024-02-16T13:18:01;17.85;;;15.73;;
81807;SDS011;71241;13.676;100.700;2024-02-16T13:20:32;20.45;;;14.80;;
81807;SDS011;71241;13.676;100.700;2024-02-16T13:23:04;21.88;;;14.85;;
81807;SDS011;71241;13.676;100.700;2024-02-16T13:25:35;22.60;;;16.35;;
81807;SDS011;71241;13.676;100.700;2024-02-16T13:28:06;17.40;;;14.05;;
81807;SDS011;71241;13.676;100.700;2024-02-16T13:30:38;19.50;;;16.45;;
81807;SDS011;71241;13.676;100.700;2024-02-16T13:33:08;20.40;;;16.35;;
81807;SDS011;71241;13.676;100.700;2024-02-16T13:35:39;17.25;;;14.07;;
81807;SDS011;71241;13.676;100.700;2024-02-16T13:38:09;18.95;;;16.40;;
81807;SDS011;71241;13.676;100.700;2024-02-16T13:40:39;17.05;;;14.52;;
81807;SDS011;71241;13.676;100.700;2024-02-16T13:43:12;18.50;;;12.38;;
81807;SDS011;71241;13.676;100.700;2024-02-16T13:46:00;22.20;;;12.55;;
81807;SDS011;71241;13.676;100.700;2024-02-16T13:48:46;17.15;;;13.20;;
81807;SDS011;71241;13.676;100.700;2024-02-16T13:51:33;20.55;;;14.70;;
81807;SDS011;71241;13.676;100.700;2024-02-16T13:54:19;15.27;;;11.52;;
81807;SDS011;71241;13.676;100.700;2024-02-16T13:57:07;18.80;;;12.93;;
81807;SDS011;71241;13.676;100.700;2024-02-16T13:59:37;17.85;;;13.07;;
81807;SDS011;71241;13.676;100.700;2024-02-16T14:02:09;18.48;;;12.77;;
81807;SDS011;71241;13.676;100.700;2024-02-16T14:04:40;15.45;;;13.65;;
81807;SDS011;71241;13.676;100.700;2024-02-16T14:07:13;17.48;;;12.45;;
81807;SDS011;71241;13.676;100.700;2024-02-16T14:09:44;15.38;;;10.80;;
81807;SDS011;71241;13.676;100.700;2024-02-16T14:12:14;13.95;;;10.98;;
81807;SDS011;71241;13.676;100.700;2024-02-16T14:14:45;19.02;;;11.10;;
81807;SDS011;71241;13.676;100.700;2024-02-16T14:17:17;12.88;;;10.80;;
81807;SDS011;71241;13.676;100.700;2024-02-16T14:19:48;15.25;;;10.50;;
81807;SDS011;71241;13.676;100.700;2024-02-16T14:22:18;15.93;;;12.25;;
81807;SDS011;71241;13.676;100.700;2024-02-16T14:24:48;14.90;;;13.30;;